Time;durP1;ratioP1;P1;durP2;ratioP2;P2;SDS_P1;SDS_P2;PMS_P1;PMS_P2;Temp;Humidity;BMP_temperature;BMP_pressure;BME280_temperature;BME280_humidity;BME280_pressure;Samples;Min_cycle;Max_cycle;Signal;HPM_P1;HPM_P2
2021/07/24 00:00:42;;;;;;;18.35;9.95;;;;;;;16.76;74.32;100753.53;5065217;28;20155;-71
2021/07/24 00:03:09;;;;;;;16.80;10.80;;;;;;;16.71;75.09;100755.69;5040170;28;20258;-71
2021/07/24 00:05:37;;;;;;;12.30;8.32;;;;;;;16.67;74.05;100752.44;5063923;28;20510;-72
2021/07/24 00:08:04;;;;;;;20.30;14.02;;;;;;;16.75;75.31;100743.88;5051983;28;20052;-71
2021/07/24 00:10:31;;;;;;;20.17;11.82;;;;;;;16.84;72.65;100745.75;5051912;28;20053;-71
2021/07/24 00:12:59;;;;;;;10.45;7.90;;;;;;;16.96;71.50;100743.88;5043883;28;20132;-72
2021/07/24 00:15:26;;;;;;;14.88;8.07;;;;;;;17.04;71.29;100744.09;5054034;28;20112;-72
2021/07/24 00:17:53;;;;;;;17.00;9.05;;;;;;;17.32;69.84;100741.75;5042214;28;20052;-72
2021/07/24 00:20:20;;;;;;;13.52;7.63;;;;;;;17.41;68.64;100739.13;5059117;28;20076;-72
2021/07/24 00:22:47;;;;;;;13.98;7.63;;;;;;;17.64;67.33;100741.63;5049803;28;20529;-73
2021/07/24 00:25:15;;;;;;;10.85;7.35;;;;;;;17.75;66.73;100728.28;5053386;28;20102;-73
2021/07/24 00:27:42;;;;;;;9.50;7.95;;;;;;;17.69;67.22;100736.75;5029922;28;20115;-71
2021/07/24 00:30:10;;;;;;;12.25;6.93;;;;;;;17.69;66.38;100728.75;5038263;28;20091;-72
2021/07/24 00:32:37;;;;;;;12.18;7.55;;;;;;;17.85;65.91;100728.31;5050196;28;20550;-72
2021/07/24 00:35:05;;;;;;;13.48;7.68;;;;;;;17.98;65.21;100725.41;5062331;28;20090;-73
2021/07/24 00:37:32;;;;;;;13.65;7.85;;;;;;;17.87;65.73;100734.31;5024496;28;20153;-72
2021/07/24 00:39:59;;;;;;;13.55;8.98;;;;;;;17.84;66.83;100726.63;5045977;28;20071;-71
2021/07/24 00:42:27;;;;;;;12.95;7.32;;;;;;;17.84;65.27;100731.94;5040124;28;20516;-72
2021/07/24 00:44:58;;;;;;;10.07;7.55;;;;;;;18.14;64.07;100725.72;5057533;28;20143;-72
2021/07/24 00:47:28;;;;;;;10.77;6.80;;;;;;;18.26;63.89;100726.44;5052094;28;20061;-71
2021/07/24 00:49:57;;;;;;;11.02;7.18;;;;;;;18.22;64.02;100726.72;5042069;28;20248;-72
2021/07/24 00:52:24;;;;;;;9.23;7.47;;;;;;;18.39;63.26;100717.22;5047841;28;20061;-73
2021/07/24 00:54:51;;;;;;;11.07;6.97;;;;;;;18.29;63.99;100716.38;5049074;28;20423;-71
2021/07/24 00:57:18;;;;;;;8.75;6.50;;;;;;;18.36;64.15;100713.97;5042097;28;20571;-72
2021/07/24 00:59:46;;;;;;;11.68;7.50;;;;;;;18.21;64.38;100722.38;5049924;28;20460;-72
2021/07/24 01:02:13;;;;;;;10.20;7.57;;;;;;;18.26;64.55;100718.47;5038514;28;20071;-72
2021/07/24 01:04:41;;;;;;;11.73;7.45;;;;;;;18.36;64.31;100711.31;5048909;28;20087;-72
2021/07/24 01:07:09;;;;;;;13.25;7.95;;;;;;;18.39;64.67;100711.03;5044109;28;20068;-71
2021/07/24 01:09:36;;;;;;;17.05;8.30;;;;;;;18.35;65.01;100713.13;5056150;28;20048;-72
2021/07/24 01:12:04;;;;;;;12.85;8.27;;;;;;;18.18;65.66;100709.31;5048928;28;20048;-73
2021/07/24 01:14:34;;;;;;;10.18;8.02;;;;;;;18.20;66.06;100715.38;5048019;28;20053;-72
2021/07/24 01:17:01;;;;;;;12.32;9.20;;;;;;;18.10;66.54;100705.66;5035464;28;20048;-72
2021/07/24 01:19:28;;;;;;;12.32;9.20;;;;;;;18.13;67.24;100705.38;5044146;28;20084;-73
2021/07/24 01:21:56;;;;;;;11.93;8.32;;;;;;;18.07;67.86;100703.28;5049968;28;20321;-73
2021/07/24 01:24:23;;;;;;;11.48;9.10;;;;;;;18.04;67.92;100700.88;5045354;28;20167;-72
2021/07/24 01:26:50;;;;;;;19.63;9.18;;;;;;;18.02;67.88;100703.69;5059763;28;20092;-72
2021/07/24 01:29:19;;;;;;;14.68;8.95;;;;;;;17.89;68.91;100705.75;5033339;28;20216;-72
2021/07/24 01:31:46;;;;;;;12.30;9.52;;;;;;;17.91;68.79;100698.47;5048025;28;20059;-71
2021/07/24 01:34:13;;;;;;;12.43;9.00;;;;;;;17.76;70.09;100697.16;5057522;28;20061;-72
2021/07/24 01:36:41;;;;;;;12.70;9.68;;;;;;;17.77;70.14;100698.84;5040014;28;20064;-72
2021/07/24 01:39:09;;;;;;;12.27;8.93;;;;;;;17.71;70.43;100705.53;5047974;28;20590;-73
2021/07/24 01:41:43;;;;;;;19.75;9.73;;;;;;;17.74;70.55;100701.75;5014364;28;20084;-72
2021/07/24 01:44:10;;;;;;;14.35;9.35;;;;;;;17.63;71.01;100703.53;5034548;28;20044;-73
2021/07/24 01:46:38;;;;;;;13.32;10.60;;;;;;;17.72;70.89;100697.38;5046092;28;20148;-71
2021/07/24 01:49:11;;;;;;;12.98;8.75;;;;;;;17.56;71.88;100694.41;5056194;28;20186;-72
2021/07/24 01:54:52;;;;;;;14.60;10.32;;;;;;;17.44;72.83;100701.63;5040444;28;20136;-72
2021/07/24 01:57:20;;;;;;;13.93;10.35;;;;;;;17.42;73.54;100695.56;5041079;28;20429;-73
2021/07/24 01:59:51;;;;;;;15.57;10.55;;;;;;;17.59;73.14;100698.59;5045576;28;20140;-71
2021/07/24 02:02:19;;;;;;;13.68;10.40;;;;;;;17.35;73.88;100699.75;5053214;28;20052;-72
2021/07/24 02:04:49;;;;;;;15.00;10.93;;;;;;;17.30;74.43;100693.16;5037120;28;20060;-72
2021/07/24 02:07:17;;;;;;;16.30;11.18;;;;;;;17.23;75.00;100694.63;5048939;28;20474;-71
2021/07/24 02:09:45;;;;;;;13.05;10.38;;;;;;;17.10;76.15;100698.34;5046171;28;20096;-72
2021/07/24 02:12:13;;;;;;;16.30;10.65;;;;;;;17.04;76.50;100695.38;5063067;28;20116;-72
2021/07/24 02:14:40;;;;;;;14.57;11.85;;;;;;;17.06;76.76;100686.28;5060214;28;20124;-72
2021/07/24 02:17:08;;;;;;;16.58;11.93;;;;;;;17.21;76.10;100684.97;5046484;28;20067;-71
2021/07/24 02:19:36;;;;;;;15.60;10.93;;;;;;;17.08;76.64;100684.34;5051296;28;20052;-72
2021/07/24 02:22:03;;;;;;;17.90;12.95;;;;;;;16.98;77.04;100682.59;5051386;28;20124;-72
2021/07/24 02:24:30;;;;;;;13.82;12.05;;;;;;;16.94;77.89;100682.00;5039898;28;20041;-72
2021/07/24 02:26:57;;;;;;;14.73;12.20;;;;;;;17.13;77.25;100686.59;5055187;28;20052;-71
2021/07/24 02:29:24;;;;;;;19.02;13.57;;;;;;;17.06;77.40;100683.63;5045516;28;20119;-72
2021/07/24 02:31:55;;;;;;;17.90;13.10;;;;;;;17.08;77.96;100686.16;5053363;28;20153;-71
2021/07/24 02:34:23;;;;;;;18.38;13.27;;;;;;;17.22;77.14;100688.47;5037441;28;20071;-72
2021/07/24 02:36:50;;;;;;;18.10;13.27;;;;;;;17.11;77.91;100691.19;5058284;28;20092;-72
2021/07/24 02:39:17;;;;;;;19.45;12.50;;;;;;;17.03;78.62;100688.38;5037895;28;20132;-71
2021/07/24 02:41:44;;;;;;;17.60;12.85;;;;;;;16.98;79.17;100690.59;5052735;28;20385;-72
2021/07/24 02:44:12;;;;;;;19.23;13.73;;;;;;;16.97;79.29;100689.72;5052038;28;20495;-72
2021/07/24 02:46:39;;;;;;;15.68;13.98;;;;;;;17.00;79.46;100685.97;5040932;28;20784;-71
2021/07/24 02:49:07;;;;;;;18.45;14.07;;;;;;;16.99;79.56;100681.63;5051305;28;20525;-72
2021/07/24 02:51:35;;;;;;;23.85;14.63;;;;;;;17.00;79.72;100678.81;5052734;28;20064;-72
2021/07/24 02:54:02;;;;;;;16.92;13.73;;;;;;;16.89;80.14;100685.06;5057399;28;20131;-72
2021/07/24 02:56:29;;;;;;;20.05;14.65;;;;;;;16.89;80.38;100681.56;5058352;28;20120;-72
2021/07/24 02:58:56;;;;;;;16.70;13.82;;;;;;;17.12;79.50;100677.78;5061911;28;20461;-72
2021/07/24 03:01:23;;;;;;;20.63;14.40;;;;;;;17.13;79.59;100670.66;5060584;28;20067;-72
2021/07/24 03:03:51;;;;;;;25.05;15.85;;;;;;;17.15;79.31;100676.66;5042861;28;20054;-71
2021/07/24 03:06:18;;;;;;;21.88;15.30;;;;;;;17.21;79.76;100676.16;5052672;28;20140;-72
2021/07/24 03:08:45;;;;;;;22.40;16.17;;;;;;;17.13;79.57;100668.81;5056391;28;20549;-70
2021/07/24 03:11:12;;;;;;;23.23;15.15;;;;;;;17.12;79.89;100669.81;5060011;28;20401;-71
2021/07/24 03:13:40;;;;;;;20.40;15.93;;;;;;;17.13;79.94;100668.81;5063473;28;20543;-72
2021/07/24 03:16:07;;;;;;;21.52;15.00;;;;;;;17.11;80.05;100665.47;5049785;28;20190;-71
2021/07/24 03:18:34;;;;;;;23.20;15.63;;;;;;;17.06;80.40;100664.16;5060156;28;20255;-72
2021/07/24 03:21:02;;;;;;;31.30;16.50;;;;;;;17.00;80.84;100668.19;5058519;28;20478;-71
2021/07/24 03:23:29;;;;;;;20.10;14.80;;;;;;;17.09;80.53;100666.56;5053162;28;20143;-71
2021/07/24 03:25:56;;;;;;;19.48;15.20;;;;;;;17.12;79.78;100661.00;5044735;28;20410;-70
2021/07/24 03:28:23;;;;;;;29.17;16.95;;;;;;;17.19;79.60;100664.78;5053842;28;20075;-72
2021/07/24 03:30:50;;;;;;;25.00;15.07;;;;;;;17.04;80.90;100653.66;5056388;28;20060;-71
2021/07/24 03:33:17;;;;;;;22.65;15.90;;;;;;;17.27;79.99;100648.19;5045873;28;20209;-72
2021/07/24 03:35:45;;;;;;;21.30;15.98;;;;;;;17.28;79.34;100641.88;5033086;28;20076;-70
2021/07/24 03:38:12;;;;;;;22.05;16.70;;;;;;;17.31;79.27;100645.13;5041815;28;20052;-72
2021/07/24 03:40:42;;;;;;;26.60;16.05;;;;;;;17.23;79.48;100646.75;5051948;28;20573;-73
2021/07/24 03:43:09;;;;;;;21.55;16.90;;;;;;;17.33;79.27;100647.63;5054794;28;20527;-71
2021/07/24 03:45:37;;;;;;;20.60;15.20;;;;;;;17.29;79.61;100643.53;5045879;28;20088;-72
2021/07/24 03:48:04;;;;;;;22.77;16.27;;;;;;;17.32;78.89;100640.63;5055078;28;20063;-71
2021/07/24 03:50:31;;;;;;;20.42;15.07;;;;;;;17.28;79.53;100637.38;5043520;28;20078;-71
2021/07/24 03:53:00;;;;;;;24.63;16.05;;;;;;;17.37;78.84;100643.72;5038527;28;20206;-72
2021/07/24 03:55:27;;;;;;;26.98;16.92;;;;;;;17.52;78.03;100639.75;5058140;28;20221;-72
2021/07/24 03:57:56;;;;;;;22.38;15.00;;;;;;;17.59;78.06;100648.03;5036868;28;20207;-71
2021/07/24 04:00:24;;;;;;;22.65;15.85;;;;;;;17.58;77.72;100644.53;5064088;28;20053;-72
2021/07/24 04:02:51;;;;;;;25.25;16.70;;;;;;;17.66;76.98;100639.38;5050974;28;20049;-70
2021/07/24 04:05:19;;;;;;;21.70;14.93;;;;;;;17.82;76.29;100644.19;5052731;28;20079;-71
2021/07/24 04:07:46;;;;;;;23.23;15.30;;;;;;;17.91;75.73;100648.69;5048204;28;20110;-73
2021/07/24 04:10:14;;;;;;;20.95;15.13;;;;;;;17.96;75.49;100649.13;5055971;28;20045;-71
2021/07/24 04:12:41;;;;;;;20.80;14.90;;;;;;;18.09;74.68;100653.34;5047988;28;20343;-72
2021/07/24 04:15:09;;;;;;;23.35;15.63;;;;;;;18.14;74.38;100649.28;5048083;28;20479;-71
2021/07/24 04:17:36;;;;;;;17.95;13.93;;;;;;;18.21;74.42;100649.59;5048070;28;20411;-73
2021/07/24 04:20:04;;;;;;;21.80;15.38;;;;;;;18.42;73.01;100654.81;5054828;28;20054;-73
2021/07/24 04:22:31;;;;;;;20.98;15.73;;;;;;;18.41;73.33;100656.59;5052484;28;20400;-72
2021/07/24 04:24:58;;;;;;;18.40;14.88;;;;;;;18.47;72.66;100647.22;5034592;28;20480;-72
2021/07/24 04:27:25;;;;;;;17.90;15.00;;;;;;;18.58;72.40;100659.56;5045131;28;20258;-72
2021/07/24 04:29:52;;;;;;;22.30;15.63;;;;;;;18.74;71.35;100651.03;5055532;28;20519;-72
2021/07/24 04:32:20;;;;;;;18.52;13.95;;;;;;;18.86;71.47;100649.84;5046802;28;21081;-72
2021/07/24 04:34:47;;;;;;;20.05;14.10;;;;;;;19.28;68.98;100657.50;5055429;28;20124;-70
2021/07/24 04:37:14;;;;;;;18.85;13.18;;;;;;;20.37;65.77;100650.44;5043293;28;20065;-71
2021/07/24 04:39:42;;;;;;;18.60;14.63;;;;;;;21.45;61.73;100652.75;5049086;28;20136;-72
2021/07/24 04:42:09;;;;;;;21.35;13.60;;;;;;;22.71;57.06;100652.72;5053097;28;20049;-73
2021/07/24 04:44:37;;;;;;;17.00;12.95;;;;;;;23.18;54.54;100646.63;5047974;28;20053;-72
2021/07/24 04:47:05;;;;;;;16.17;13.48;;;;;;;23.59;53.23;100646.50;5049452;28;20127;-72
2021/07/24 04:49:32;;;;;;;17.65;13.05;;;;;;;24.24;51.34;100649.69;5047350;28;20094;-72
2021/07/24 04:52:00;;;;;;;18.13;13.05;;;;;;;24.86;49.41;100650.59;5039239;28;20068;-72
2021/07/24 04:54:28;;;;;;;15.52;12.40;;;;;;;25.29;47.94;100645.44;5041463;28;20056;-73
2021/07/24 04:56:56;;;;;;;18.95;13.57;;;;;;;25.47;47.61;100652.13;5047785;28;20130;-72
2021/07/24 04:59:24;;;;;;;19.55;13.48;;;;;;;26.06;45.56;100656.59;5040457;28;20401;-73
2021/07/24 05:01:51;;;;;;;17.83;13.02;;;;;;;25.87;46.37;100659.91;5032165;28;20140;-72
2021/07/24 05:04:18;;;;;;;16.02;13.35;;;;;;;25.83;46.26;100662.16;5045734;28;20136;-72
2021/07/24 05:06:45;;;;;;;18.27;13.20;;;;;;;26.06;45.23;100664.69;5048555;28;20591;-71
2021/07/24 05:09:12;;;;;;;22.40;13.82;;;;;;;26.85;43.80;100663.81;5059995;28;20198;-71
2021/07/24 05:11:42;;;;;;;19.98;13.25;;;;;;;27.19;42.58;100658.47;5035768;28;20104;-72
2021/07/24 05:14:09;;;;;;;18.30;13.20;;;;;;;26.23;44.60;100652.63;5056183;28;20053;-71
2021/07/24 05:16:36;;;;;;;15.73;13.88;;;;;;;26.34;44.34;100653.97;5046646;28;20120;-71
2021/07/24 05:19:06;;;;;;;16.83;12.38;;;;;;;26.73;42.97;100650.00;5057335;28;20508;-71
2021/07/24 05:21:33;;;;;;;18.10;13.70;;;;;;;26.87;43.03;100651.78;5055648;28;20053;-72
2021/07/24 05:24:00;;;;;;;15.65;11.90;;;;;;;27.80;40.78;100651.56;5053453;28;20212;-71
2021/07/24 05:26:27;;;;;;;14.35;12.60;;;;;;;28.13;40.46;100649.75;5052963;28;20053;-72
2021/07/24 05:28:54;;;;;;;16.90;13.10;;;;;;;28.42;39.09;100653.19;5015910;28;20067;-74
2021/07/24 05:31:22;;;;;;;19.02;12.95;;;;;;;28.39;39.29;100662.56;5053360;28;20135;-72
2021/07/24 05:33:50;;;;;;;16.13;12.43;;;;;;;29.00;38.29;100656.97;5053336;28;20128;-71
2021/07/24 05:36:17;;;;;;;15.15;12.52;;;;;;;29.45;37.73;100658.94;5045374;28;20049;-71
2021/07/24 05:38:44;;;;;;;13.90;12.38;;;;;;;28.89;38.12;100660.28;5047669;28;20459;-72
2021/07/24 05:41:11;;;;;;;15.82;12.70;;;;;;;29.55;36.99;100667.50;5043981;28;20084;-72
2021/07/24 05:43:38;;;;;;;13.93;12.48;;;;;;;30.19;36.08;100668.47;5045370;28;20053;-72
2021/07/24 05:46:06;;;;;;;23.42;12.75;;;;;;;30.80;34.51;100677.88;5048702;28;20048;-72
2021/07/24 05:48:33;;;;;;;15.25;13.10;;;;;;;30.74;34.96;100679.59;5047619;28;20128;-73
2021/07/24 05:51:06;;;;;;;14.43;12.88;;;;;;;31.33;33.82;100675.50;5059811;28;20076;-71
2021/07/24 05:53:33;;;;;;;15.88;13.55;;;;;;;31.04;33.71;100673.50;5052686;28;20049;-72
2021/07/24 05:56:00;;;;;;;18.58;13.20;;;;;;;30.41;34.99;100664.38;5056028;28;20052;-72
2021/07/24 05:58:28;;;;;;;15.18;13.43;;;;;;;30.40;35.30;100670.03;5046213;28;20572;-73
2021/07/24 06:00:55;;;;;;;13.93;12.48;;;;;;;31.06;34.00;100666.78;5043166;28;20129;-73
2021/07/24 06:03:22;;;;;;;16.92;11.93;;;;;;;31.88;32.77;100667.38;5032598;28;20082;-71
2021/07/24 06:05:50;;;;;;;17.48;13.00;;;;;;;32.35;31.85;100658.53;5049022;28;20076;-72
2021/07/24 06:08:17;;;;;;;19.27;13.18;;;;;;;31.55;33.01;100662.28;5043644;28;20045;-72
2021/07/24 06:10:44;;;;;;;13.88;12.40;;;;;;;31.75;32.35;100657.47;5050531;28;20073;-73
2021/07/24 06:13:11;;;;;;;15.30;13.15;;;;;;;32.18;31.79;100664.63;5052886;28;20111;-72
2021/07/24 06:15:42;;;;;;;17.52;12.80;;;;;;;31.97;32.33;100670.59;5053763;28;20128;-72
2021/07/24 06:18:09;;;;;;;16.83;13.32;;;;;;;31.98;31.95;100666.81;5052206;28;20099;-71
2021/07/24 06:20:37;;;;;;;17.42;13.30;;;;;;;32.61;31.40;100670.94;5043137;28;20053;-72
2021/07/24 06:23:05;;;;;;;13.77;12.38;;;;;;;33.35;30.12;100665.88;5040968;28;20040;-72
2021/07/24 06:25:33;;;;;;;14.55;13.15;;;;;;;33.94;29.65;100663.81;5027673;28;20077;-73
2021/07/24 06:28:00;;;;;;;15.00;12.10;;;;;;;33.24;30.53;100660.19;5046066;28;20049;-72
2021/07/24 06:30:28;;;;;;;17.30;13.52;;;;;;;33.65;29.62;100649.34;5048745;28;20056;-73
2021/07/24 06:32:56;;;;;;;14.43;12.98;;;;;;;34.66;28.50;100649.56;5038585;28;20059;-72
2021/07/24 07:15:57;;;;;;;15.07;13.48;;;;;;;35.81;26.17;100614.22;5050267;28;20047;-72
2021/07/24 07:18:24;;;;;;;14.38;12.98;;;;;;;36.07;25.65;100610.69;5030337;28;20135;-72
2021/07/24 07:20:51;;;;;;;15.20;13.60;;;;;;;35.67;26.83;100613.81;5049329;28;20373;-72
2021/07/24 07:23:19;;;;;;;14.43;12.02;;;;;;;37.38;25.02;100616.56;5061188;28;20163;-72
2021/07/24 07:25:46;;;;;;;15.02;13.45;;;;;;;36.82;24.83;100606.06;5067483;28;20061;-72
2021/07/24 07:28:13;;;;;;;16.10;13.63;;;;;;;36.88;24.88;100609.66;5064493;28;20552;-72
2021/07/24 07:30:40;;;;;;;18.27;13.30;;;;;;;37.21;24.62;100608.50;5066950;28;20590;-71
2021/07/24 07:33:08;;;;;;;15.70;14.20;;;;;;;37.28;24.00;100611.81;5062359;28;20415;-71
2021/07/24 07:35:35;;;;;;;15.32;13.73;;;;;;;37.26;24.54;100612.09;5063730;28;20048;-72
2021/07/24 07:38:02;;;;;;;15.93;14.30;;;;;;;36.71;24.34;100599.69;5069596;28;20068;-71
2021/07/24 07:40:29;;;;;;;15.13;13.55;;;;;;;37.05;24.10;100596.63;5054009;28;20160;-73
2021/07/24 07:42:56;;;;;;;14.70;12.82;;;;;;;37.20;23.92;100601.38;5064008;28;20040;-71
2021/07/24 07:45:23;;;;;;;14.70;13.05;;;;;;;37.19;23.92;100606.00;5069416;28;20135;-71
2021/07/24 07:47:51;;;;;;;15.30;13.50;;;;;;;37.62;23.51;100603.19;5066299;28;20080;-72
2021/07/24 07:50:18;;;;;;;16.10;13.77;;;;;;;37.68;23.06;100597.44;5053758;28;20505;-72
2021/07/24 07:52:45;;;;;;;15.57;14.15;;;;;;;37.49;23.84;100590.78;5048460;28;20412;-73
2021/07/24 07:55:13;;;;;;;14.70;12.95;;;;;;;37.20;23.88;100596.69;5070203;28;20052;-72
2021/07/24 07:57:40;;;;;;;14.88;12.77;;;;;;;36.87;24.53;100588.81;5067189;28;20125;-72
2021/07/24 08:00:08;;;;;;;17.08;13.82;;;;;;;37.02;24.29;100591.69;5069284;28;20071;-72
2021/07/24 08:02:35;;;;;;;17.17;12.90;;;;;;;38.24;23.00;100593.97;5061634;28;20506;-71
2021/07/24 08:05:03;;;;;;;14.68;13.27;;;;;;;38.79;21.57;100589.53;5044208;28;20127;-72
2021/07/24 08:07:31;;;;;;;15.57;14.02;;;;;;;38.32;21.59;100595.34;5064203;28;20510;-71
2021/07/24 08:09:59;;;;;;;18.85;14.13;;;;;;;38.60;21.69;100591.22;5064543;28;20127;-71
2021/07/24 08:12:26;;;;;;;17.02;13.57;;;;;;;37.36;22.94;100585.78;5066270;28;20604;-72
2021/07/24 08:14:57;;;;;;;15.60;13.90;;;;;;;37.63;22.68;100589.19;5069732;28;20083;-71
2021/07/24 08:17:26;;;;;;;14.98;13.40;;;;;;;37.62;23.12;100582.03;5045390;28;20063;-72
2021/07/24 08:19:53;;;;;;;15.32;13.70;;;;;;;37.34;23.31;100574.25;5060364;28;20095;-72
2021/07/24 08:22:20;;;;;;;15.00;13.43;;;;;;;38.07;22.38;100572.25;5032334;28;20513;-72
2021/07/24 08:24:47;;;;;;;15.88;14.38;;;;;;;37.46;22.80;100575.66;5070660;28;20060;-72
2021/07/24 08:27:14;;;;;;;14.40;12.98;;;;;;;37.65;22.18;100565.03;5064011;28;20068;-73
2021/07/24 08:29:42;;;;;;;14.93;13.50;;;;;;;37.60;22.47;100573.22;5069055;28;20135;-72
2021/07/24 08:32:09;;;;;;;16.38;14.00;;;;;;;36.78;23.08;100574.75;5067899;28;20079;-72
2021/07/24 08:34:36;;;;;;;15.45;13.95;;;;;;;37.36;22.37;100569.28;5064544;28;20136;-71
2021/07/24 08:37:06;;;;;;;17.75;14.18;;;;;;;36.16;23.65;100568.00;5066998;28;20059;-71
2021/07/24 08:39:35;;;;;;;16.83;14.27;;;;;;;34.09;26.29;100563.09;5018273;28;20156;-71
2021/07/24 08:42:07;;;;;;;14.60;13.02;;;;;;;32.05;28.13;100568.69;5066124;28;20045;-72
2021/07/24 08:44:37;;;;;;;16.55;14.40;;;;;;;31.13;30.34;100566.09;5054436;28;20139;-71
2021/07/24 08:47:04;;;;;;;17.02;14.50;;;;;;;30.19;32.35;100560.69;5075404;28;20044;-72
2021/07/24 08:49:32;;;;;;;15.30;13.45;;;;;;;30.11;32.90;100574.50;5053670;28;20140;-70
2021/07/24 08:52:00;;;;;;;14.95;13.43;;;;;;;29.39;33.46;100565.72;5023272;28;20040;-71
2021/07/24 08:54:27;;;;;;;15.85;14.10;;;;;;;29.83;33.48;100569.47;5050340;28;20052;-72
2021/07/24 08:56:55;;;;;;;17.98;13.38;;;;;;;29.87;33.82;100567.16;5050165;28;20158;-71
2021/07/24 08:59:22;;;;;;;14.75;13.05;;;;;;;29.14;34.06;100559.34;5065627;28;20522;-71
2021/07/24 09:01:55;;;;;;;17.92;14.85;;;;;;;28.96;35.02;100566.28;5050178;28;20053;-70
2021/07/24 09:04:23;;;;;;;15.38;13.02;;;;;;;29.05;34.54;100564.19;5079272;28;20068;-71
2021/07/24 09:06:59;;;;;;;16.95;13.85;;;;;;;28.59;35.68;100561.50;5063786;28;20206;-71
2021/07/24 09:09:26;;;;;;;17.92;14.13;;;;;;;28.71;35.28;100552.53;5033688;28;20060;-72
2021/07/24 09:11:53;;;;;;;16.02;12.88;;;;;;;28.80;35.38;100549.63;5072917;28;20558;-71
2021/07/24 09:14:21;;;;;;;14.70;12.95;;;;;;;28.72;35.79;100554.19;5048019;28;20487;-71
2021/07/24 09:16:49;;;;;;;14.73;13.23;;;;;;;28.70;35.29;100540.03;5064615;28;20604;-72
2021/07/24 09:19:17;;;;;;;16.48;13.73;;;;;;;28.63;35.16;100552.75;5068191;28;20159;-71
2021/07/24 09:21:44;;;;;;;14.70;13.07;;;;;;;28.17;35.71;100544.63;5060521;28;20053;-72
2021/07/24 09:24:21;;;;;;;17.30;12.98;;;;;;;28.46;35.52;100544.25;5036744;28;20108;-72
2021/07/24 09:26:49;;;;;;;16.52;12.68;;;;;;;28.27;35.58;100548.56;5030254;28;20436;-72
2021/07/24 09:29:18;;;;;;;17.50;13.68;;;;;;;28.38;35.32;100539.03;5068085;28;20545;-74
2021/07/24 09:31:45;;;;;;;16.15;13.98;;;;;;;28.13;35.21;100535.25;5055268;28;20106;-72
2021/07/24 09:34:14;;;;;;;15.93;13.75;;;;;;;27.95;35.54;100525.03;5071124;28;20066;-72
2021/07/24 09:36:42;;;;;;;15.23;13.63;;;;;;;28.16;35.29;100532.16;5067291;28;20148;-72
2021/07/24 09:39:16;;;;;;;16.20;13.23;;;;;;;28.34;34.86;100535.06;5044868;28;20418;-73
2021/07/24 09:41:46;;;;;;;14.55;12.70;;;;;;;28.61;34.77;100524.22;5012858;28;20566;-71
2021/07/24 09:44:29;;;;;;;17.63;13.52;;;;;;;28.26;34.83;100530.69;5055154;28;20135;-72
2021/07/24 09:46:57;;;;;;;15.77;13.07;;;;;;;28.37;34.56;100525.69;5066434;28;20151;-71
2021/07/24 09:49:38;;;;;;;16.52;13.55;;;;;;;28.15;34.53;100523.19;5050218;28;20147;-72
2021/07/24 09:52:13;;;;;;;17.55;12.85;;;;;;;28.25;34.05;100515.47;5048973;28;20052;-71
2021/07/24 09:54:41;;;;;;;16.45;12.68;;;;;;;28.24;34.44;100521.94;5050133;28;20079;-70
2021/07/24 09:57:08;;;;;;;16.30;12.82;;;;;;;28.15;34.62;100517.78;5047549;28;20056;-71
2021/07/24 09:59:35;;;;;;;19.13;13.70;;;;;;;28.15;34.79;100520.50;5049619;28;20451;-71
2021/07/24 10:02:07;;;;;;;16.40;13.35;;;;;;;28.34;34.82;100507.16;5055849;28;20440;-73
2021/07/24 10:04:36;;;;;;;14.27;12.63;;;;;;;28.64;33.87;100521.06;5050494;28;20052;-70
2021/07/24 10:07:26;;;;;;;16.15;13.13;;;;;;;28.38;34.32;100508.44;5045579;28;20258;-70
2021/07/24 10:09:54;;;;;;;17.40;12.40;;;;;;;28.29;34.48;100518.59;5048957;28;20131;-71
2021/07/24 10:12:21;;;;;;;16.08;12.55;;;;;;;28.69;33.80;100511.28;5032785;28;20162;-71
2021/07/24 10:14:49;;;;;;;14.73;13.13;;;;;;;29.08;33.40;100517.66;5069802;28;20071;-72
2021/07/24 10:17:17;;;;;;;14.88;11.88;;;;;;;28.94;32.98;100521.44;5052413;28;20078;-73
2021/07/24 10:19:45;;;;;;;15.55;12.73;;;;;;;28.74;33.42;100518.78;5050128;28;20596;-72
2021/07/24 10:22:12;;;;;;;12.38;11.07;;;;;;;28.68;33.20;100517.72;5047685;28;20136;-72
2021/07/24 10:24:39;;;;;;;13.70;12.00;;;;;;;28.60;33.70;100517.16;5069330;28;20159;-72
2021/07/24 10:27:11;;;;;;;17.67;12.40;;;;;;;28.97;33.13;100519.16;5066792;28;20142;-71
2021/07/24 10:30:06;;;;;;;13.55;11.00;;;;;;;29.16;32.49;100517.41;5066747;28;20074;-72
2021/07/24 10:32:36;;;;;;;14.45;12.85;;;;;;;29.09;33.84;100518.47;5034562;28;20242;-70
2021/07/24 10:35:04;;;;;;;14.07;12.48;;;;;;;28.95;33.37;100509.53;5032787;28;20478;-72
2021/07/24 10:37:44;;;;;;;17.52;12.50;;;;;;;29.24;33.11;100503.63;5058274;28;20060;-73
2021/07/24 10:40:41;;;;;;;13.32;11.05;;;;;;;29.08;32.95;100520.38;5068158;28;20064;-73
2021/07/24 10:44:13;;;;;;;21.33;13.55;;;;;;;28.88;33.48;100515.00;5043709;28;20112;-76
2021/07/24 10:46:40;;;;;;;12.73;11.43;;;;;;;29.02;33.61;100519.34;5074411;28;20459;-72
2021/07/24 10:49:08;;;;;;;15.85;12.25;;;;;;;29.32;33.33;100505.25;5094598;28;20048;-71
2021/07/24 10:51:54;;;;;;;15.88;12.20;;;;;;;29.41;32.85;100516.69;5085208;28;20121;-72
2021/07/24 10:54:23;;;;;;;15.63;11.40;;;;;;;29.64;32.62;100508.03;5093205;28;20379;-72
2021/07/24 10:56:50;;;;;;;13.10;11.65;;;;;;;30.06;32.15;100506.47;5080397;28;20044;-71
2021/07/24 10:59:19;;;;;;;14.32;12.32;;;;;;;30.54;31.17;100499.59;5073639;28;20052;-72
2021/07/24 11:01:57;;;;;;;16.75;12.25;;;;;;;30.74;31.33;100498.34;5099262;28;20263;-70
2021/07/24 11:04:37;;;;;;;14.80;12.48;;;;;;;30.54;31.35;100489.56;5090922;28;20048;-72
2021/07/24 11:07:13;;;;;;;16.17;12.32;;;;;;;30.24;31.09;100498.41;5085332;28;20048;-69
2021/07/24 11:09:41;;;;;;;16.23;11.27;;;;;;;30.07;31.06;100491.84;5100908;28;20062;-73
2021/07/24 11:12:11;;;;;;;16.15;11.65;;;;;;;29.48;32.27;100485.75;5046760;28;20154;-71
2021/07/24 11:14:38;;;;;;;12.82;10.80;;;;;;;29.41;32.29;100471.44;5080810;28;20196;-72
2021/07/24 11:17:06;;;;;;;16.15;12.05;;;;;;;29.57;32.52;100474.69;5090104;28;20150;-71
2021/07/24 11:20:03;;;;;;;16.05;11.75;;;;;;;29.87;32.04;100475.72;5092482;28;20075;-72
2021/07/24 11:22:31;;;;;;;14.13;11.32;;;;;;;29.76;32.45;100477.25;5075242;28;20058;-70
2021/07/24 11:24:57;;;;;;;14.75;11.65;;;;;;;29.77;31.75;100478.94;5094521;28;20059;-70
2021/07/24 11:27:28;;;;;;;11.95;10.75;;;;;;;29.39;33.23;100468.06;5092840;28;20143;-71
2021/07/24 11:30:07;;;;;;;15.68;12.13;;;;;;;29.62;32.37;100467.53;5109268;28;20525;-72
2021/07/24 11:32:36;;;;;;;14.32;11.30;;;;;;;29.84;31.69;100459.88;5097026;28;20525;-71
2021/07/24 11:35:08;;;;;;;12.93;11.43;;;;;;;29.41;32.99;100474.13;5078562;28;20044;-71
2021/07/24 11:37:48;;;;;;;14.68;10.80;;;;;;;29.23;33.08;100464.00;5097132;28;20101;-72
2021/07/24 11:40:17;;;;;;;16.10;12.10;;;;;;;29.09;33.33;100453.44;5074938;28;20086;-71
2021/07/24 11:43:04;;;;;;;15.32;11.85;;;;;;;29.24;33.41;100462.13;5098497;28;20052;-72
2021/07/24 11:45:33;;;;;;;14.63;11.63;;;;;;;29.31;32.99;100459.38;5090812;28;20079;-71
2021/07/24 11:48:10;;;;;;;17.05;12.57;;;;;;;29.42;33.37;100454.09;5086495;28;20101;-71
2021/07/24 11:50:39;;;;;;;14.25;11.52;;;;;;;29.18;33.25;100458.41;5081297;28;20055;-72
2021/07/24 11:53:06;;;;;;;17.35;12.20;;;;;;;29.43;33.49;100463.06;5093363;28;20066;-71
2021/07/24 11:55:35;;;;;;;16.63;11.43;;;;;;;29.81;32.62;100454.06;5082840;28;20048;-72
2021/07/24 11:58:09;;;;;;;15.20;12.07;;;;;;;29.94;32.42;100459.38;5088533;28;20075;-71
2021/07/24 12:00:41;;;;;;;14.82;10.65;;;;;;;30.22;31.13;100454.38;5087369;28;20040;-71